Aérodrome :
LOGIN :

S'inscrire | Disclaimer

   EN    FR    IT 

 










Légende :    VFR   VFR Marginal   IFR   IFR Intensif   IFR Très Intensif
Visi : 
Plafond : 
>= 8 km
>= 3000ft
5 à 8 km
1000 à 3000 ft
1500m à 5 km
500 à 1000 ft
800 à 1500m
200 à 500 ft
< 800m
< 200 ft
Symboles :   Orages  Brouillard  Fortes neiges  Fortes précipitations  Vent > 20 kt
SIGMETs :   Divers  Orages  Givrage  Turbulence  Onde Orograph.  Cendres Volcan.







- Altitude de l'aérodrome : 112 ft
- Code IATA : SVQ


LEZL - Sevilla San Pablo

DERNIER METAR :
  • 192100Z 08005KT 040V110 CAVOK 19/09 Q1016 NOSIG

METARs EXPIRÉS :
  • 192030Z 12005KT CAVOK 18/10 Q1015 NOSIG
  • 192000Z 15004KT 080V210 CAVOK 19/10 Q1015 NOSIG
  • 191930Z 10008KT CAVOK 20/10 Q1015 NOSIG
  • 191900Z 12007KT CAVOK 21/10 Q1014 NOSIG
  • 191830Z 09007KT CAVOK 23/11 Q1014 NOSIG
  • 191800Z 10008KT CAVOK 24/10 Q1014 NOSIG

TAF TAF LEZL
Valide du 19 à 21h jusqu'au 20 à 21h UTC


192000Z 1921/2021 10006KT CAVOK TX26/2015Z TN15/2006Z
BECMG 2001/2004 09016KT
TEMPO 2006/2016 09018G30KT
BECMG 2019/2021 VRB03KT
Pas de NOTAMs connus pour ce terrain.



MET'MAP, la Météo Aéronautique d'un coup d'oeil ! - Copyright ORBIFLY Décembre 2007 - Disclaimer

ORBIFLY MET'MAP TEAM :

Programmation & Développement : Alexandra Zaïnal
Conception & Développement : Baudouin d'Aumeries
Co-Programmation & Développement : Marc-Olivier Méhu
Soutien technique & logistique : Manuel Goepfert

Contact : metmap@orbifly.com




SOURCES & CREDITS :

   NOAA